CYQX - CYJT

Guest
Details From CYQX - Gander Intl
To CYJT - Stephenville
Flight Number -
Tags Generated
Created
Modified
Stats Distance 160 nm / 296 km
Max Altitude 0 ft / 0 m
Waypoints 2
Social Downloads 1
Likes 0
Share VATSIM

Download

Looking for another format? Having issues loading an existing format? Contact us
Advertisement - Login to hide

Notes

Generated

Route

CYQX CYJT

ID Type Via Altitude Latitude Longitude Leg Dist Tot Dist Heading (true) Name
O CYQX APT - 0 ft / 0 m 48.94339˚ -54.56803˚ - 0 nm - GANDER INTL
O CYJT APT - 0 ft / 0 m 48.53389˚ -58.55250˚ 159 nm 159 nm 263° / 260° -

Altitude Profile

CYQX

Details ICAO CYQX (YQX)
Name GANDER INTL
Region Canada
Timezone America/St_Johns (UTC-3.5)
Stats Elevation 496 ft / 151 m (AMSL)
Location 48.942962° -54.565864°
Runways 3
Magnetic Variation 18.999° W

METAR

CYQX 031513Z 03014G19KT 4SM -SN BKN006 BKN013 OVC022 01/M00 A2945 RMK SF5SC2SC1 VIS HIER N SLP980

Decode

TAF

TAF CYQX 031138Z 0312/0412 05015G25KT 1SM -SN OVC005 TEMPO 0312/0314 4SM -SN BLSN SCT005 OVC012 FM031400 04015G25KT 6SM -SN FEW006 OVC010 TEMPO 0314/0321 2SM -SN OVC006 FM032100 03015KT P6SM -SN OVC015 FM040600 04012KT P6SM -SN BKN025 RMK NXT FCST BY 031800Z

Decode

Departure Runways

ID Width Length Bearing (true) Bearing (mag) Surface Threshold Offset Overrun Length
03 200 ft / 61 m 10,230 ft / 3,118 m 10.93° 29.93° Asphalt 0 ft / 0 m 200 ft / 61 m
09 50 ft / 15 m 1,874 ft / 571 m 62.63° 81.63° Asphalt 0 ft / 0 m 75 ft / 23 m
13 200 ft / 61 m 8,855 ft / 2,699 m 107.30° 126.30° Asphalt 0 ft / 0 m 200 ft / 61 m
21 200 ft / 61 m 10,230 ft / 3,118 m 190.94° 209.94° Asphalt 0 ft / 0 m 199 ft / 61 m
27 50 ft / 15 m 1,874 ft / 571 m 242.64° 261.64° Asphalt 0 ft / 0 m 250 ft / 76 m
31 200 ft / 61 m 8,855 ft / 2,699 m 287.33° 306.33° Asphalt 0 ft / 0 m 201 ft / 61 m

CYJT

Details ICAO CYJT (YJT)
Name STEPHENVILLE
Region Canada
Timezone America/St_Johns (UTC-3.5)
Stats Elevation 80 ft / 24 m (AMSL)
Location 48.541811° -58.551488°
Runways 2
Magnetic Variation 19.104° W

METAR

CYJT 031500Z 05011KT 15SM FEW015 OVC035 02/M02 A2952 RMK SF2SC6 SLP999

Decode

TAF

TAF CYJT 031138Z 0312/0412 06015G25KT P6SM OVC030 TEMPO 0312/0324 5SM -RA BR OVC020 FM040000 02012G22KT P6SM SCT025 BKN050 FM040900 04010KT P6SM SCT050 RMK NXT FCST BY 031800Z

Decode

Destination Runways

ID Width Length Bearing (true) Bearing (mag) Surface Threshold Offset Overrun Length
02 150 ft / 46 m 3,770 ft / 1,149 m 355.50° 14.60° Asphalt 0 ft / 0 m 0 ft / 0 m
09 200 ft / 61 m 9,970 ft / 3,039 m 71.61° 90.71° Asphalt 0 ft / 0 m 1,000 ft / 305 m
20 150 ft / 46 m 3,770 ft / 1,149 m 175.50° 194.60° Asphalt 0 ft / 0 m 0 ft / 0 m
27 200 ft / 61 m 9,970 ft / 3,039 m 251.64° 270.74° Asphalt 0 ft / 0 m 1,000 ft / 305 m

Popular Alternatives